createdAt,value
2022-07-28T00:00:20.451Z,99773.33
2022-07-28T00:01:22.773Z,99781.47
2022-07-28T00:02:27.083Z,99772.36
2022-07-28T00:03:30.020Z,99776.80
2022-07-28T00:04:33.116Z,99778.11
2022-07-28T00:05:35.415Z,99769.25
2022-07-28T00:06:37.780Z,99777.63
2022-07-28T00:07:40.037Z,99772.59
2022-07-28T00:08:42.377Z,99787.23
2022-07-28T00:09:44.531Z,99778.59
2022-07-28T00:10:47.026Z,99775.00
2022-07-28T00:11:51.455Z,99778.83
2022-07-28T00:12:53.275Z,99779.52
2022-07-28T00:13:55.715Z,99776.42
2022-07-28T00:14:58.068Z,99783.02
2022-07-28T00:16:01.100Z,99777.74
2022-07-28T00:17:03.825Z,99780.61
2022-07-28T00:18:06.023Z,99783.61
2022-07-28T00:19:08.421Z,99776.20
2022-07-28T00:20:11.170Z,99788.91
2022-07-28T00:21:14.614Z,99795.59
2022-07-28T00:22:17.718Z,99792.23
2022-07-28T00:23:20.465Z,99799.09
2022-07-28T00:24:23.966Z,99793.92
2022-07-28T00:25:26.215Z,99796.69
2022-07-28T00:26:30.327Z,99789.86
2022-07-28T00:27:32.725Z,99791.55
2022-07-28T00:28:35.985Z,99799.92
2022-07-28T00:29:49.274Z,99794.17
2022-07-28T00:30:42.527Z,99800.87
2022-07-28T00:31:44.886Z,99789.98
2022-07-28T00:32:47.410Z,99795.37
2022-07-28T00:33:49.919Z,99800.16
2022-07-28T00:34:53.434Z,99798.22
2022-07-28T00:35:56.071Z,99789.84
2022-07-28T00:36:59.047Z,99803.25
2022-07-28T00:38:01.252Z,99802.05
2022-07-28T00:39:04.000Z,99798.47
2022-07-28T00:40:08.358Z,99795.48
2022-07-28T00:41:11.275Z,99796.81
2022-07-28T00:42:19.436Z,99794.27
2022-07-28T00:43:21.925Z,99799.19
2022-07-28T00:44:23.886Z,99790.33
2022-07-28T00:45:26.045Z,99792.84
2022-07-28T00:46:29.021Z,99793.22
2022-07-28T00:47:33.508Z,99789.61
2022-07-28T00:48:44.319Z,99779.33
2022-07-28T00:49:46.695Z,99783.14
2022-07-28T00:50:49.059Z,99783.73
2022-07-28T00:51:51.881Z,99784.11
2022-07-28T00:52:55.106Z,99776.91
2022-07-28T00:53:58.245Z,99781.95
2022-07-28T00:55:02.887Z,99778.59
2022-07-28T00:56:07.035Z,99779.80
2022-07-28T00:57:09.613Z,99786.97
2022-07-28T00:58:11.683Z,99783.28
2022-07-28T00:59:14.157Z,99783.98
2022-07-28T01:00:17.441Z,99785.06
2022-07-28T01:01:20.182Z,99785.06
2022-07-28T01:02:23.998Z,99795.25
2022-07-28T01:03:28.468Z,99793.22
2022-07-28T01:04:30.987Z,99790.33
2022-07-28T01:05:54.681Z,99792.74
2022-07-28T01:07:07.040Z,99797.02
2022-07-28T01:09:32.037Z,99792.25
2022-07-28T01:11:09.224Z,99798.24
2022-07-28T01:12:34.298Z,99797.17
2022-07-28T01:13:55.414Z,99799.55
2022-07-28T01:15:17.895Z,99798.72
2022-07-28T01:16:23.597Z,99796.56
2022-07-28T01:17:52.719Z,99790.59
2022-07-28T01:19:04.564Z,99788.41
2022-07-28T01:20:16.997Z,99790.09
2022-07-28T01:21:23.750Z,99797.64
2022-07-28T01:22:30.218Z,99795.13
2022-07-28T01:23:41.756Z,99796.31
2022-07-28T01:25:05.857Z,99798.22
2022-07-28T01:26:31.533Z,99802.53
2022-07-28T01:27:58.174Z,99794.84
2022-07-28T01:29:09.846Z,99793.55
2022-07-28T01:30:35.492Z,99793.08
2022-07-28T01:31:41.371Z,99792.59
2022-07-28T01:32:47.626Z,99793.41
2022-07-28T01:33:53.185Z,99792.90
2022-07-28T01:35:15.499Z,99785.86
2022-07-28T01:36:22.799Z,99786.69
2022-07-28T01:37:28.743Z,99791.00
2022-07-28T01:38:33.769Z,99792.80
2022-07-28T01:39:39.065Z,99785.52
2022-07-28T01:40:44.981Z,99787.88
2022-07-28T01:41:50.882Z,99788.07
2022-07-28T01:42:56.560Z,99791.25
2022-07-28T01:44:02.366Z,99788.78
2022-07-28T01:45:07.473Z,99790.22
2022-07-28T01:46:12.171Z,99797.84
2022-07-28T01:47:16.340Z,99788.78
2022-07-28T01:48:22.009Z,99798.58
2022-07-28T01:49:27.496Z,99801.20
2022-07-28T01:50:32.391Z,99796.41
2022-07-28T01:51:36.210Z,99796.88
2022-07-28T01:52:40.809Z,99799.04
2022-07-28T01:53:45.589Z,99798.55
2022-07-28T01:54:49.541Z,99802.34
2022-07-28T01:55:52.522Z,99792.06
2022-07-28T01:56:56.722Z,99799.50
2022-07-28T01:58:00.890Z,99799.98
2022-07-28T01:59:05.979Z,99804.42
2022-07-28T02:00:10.749Z,99807.85
2022-07-28T02:01:17.395Z,99806.34
2022-07-28T02:02:20.517Z,99804.29
2022-07-28T02:03:24.715Z,99811.11
2022-07-28T02:04:27.901Z,99808.97
2022-07-28T02:05:32.992Z,99808.97
2022-07-28T02:06:38.867Z,99813.99
2022-07-28T02:07:43.734Z,99810.41
2022-07-28T02:08:47.102Z,99818.55
2022-07-28T02:09:50.261Z,99818.09
2022-07-28T02:10:55.383Z,99817.36
2022-07-28T02:12:00.005Z,99818.59
2022-07-28T02:13:03.889Z,99819.86
2022-07-28T02:14:18.458Z,99817.03
2022-07-28T02:15:22.127Z,99826.15
2022-07-28T02:16:26.830Z,99819.95
2022-07-28T02:18:44.557Z,99829.89
2022-07-28T02:19:49.720Z,99820.84
2022-07-28T02:20:52.481Z,99833.25
2022-07-28T02:23:16.659Z,99826.52
2022-07-28T02:24:22.501Z,99825.36
2022-07-28T02:25:25.358Z,99835.23
2022-07-28T02:26:34.523Z,99837.94
2022-07-28T02:27:43.463Z,99837.44
2022-07-28T02:28:48.856Z,99827.25
2022-07-28T02:30:00.936Z,99836.83
2022-07-28T02:31:06.175Z,99839.57
2022-07-28T02:32:27.305Z,99825.93
2022-07-28T02:33:59.589Z,99830.95
2022-07-28T02:34:35.614Z,99841.48
2022-07-28T02:35:41.289Z,99824.56
2022-07-28T02:36:56.414Z,99829.70
2022-07-28T02:38:03.716Z,99827.20
2022-07-28T02:39:09.558Z,99829.64
2022-07-28T02:40:14.723Z,99830.59
2022-07-28T02:41:29.018Z,99828.47
2022-07-28T02:42:34.625Z,99823.09
2022-07-28T02:43:49.218Z,99834.78
2022-07-28T02:44:46.254Z,99840.98
2022-07-28T02:45:52.111Z,99838.67
2022-07-28T02:46:57.636Z,99837.85
2022-07-28T02:48:03.424Z,99839.52
2022-07-28T02:49:09.196Z,99844.05
2022-07-28T02:50:15.217Z,99850.37
2022-07-28T02:51:20.330Z,99850.79
2022-07-28T02:52:24.948Z,99849.29
2022-07-28T02:53:30.817Z,99855.79
2022-07-28T02:54:34.652Z,99853.66
2022-07-28T02:55:39.396Z,99852.09
2022-07-28T02:56:42.720Z,99846.84
2022-07-28T02:57:51.996Z,99850.41
2022-07-28T02:58:54.173Z,99852.54
2022-07-28T02:59:57.665Z,99847.72
2022-07-28T03:01:00.568Z,99846.04
2022-07-28T03:02:03.513Z,99842.53
2022-07-28T03:03:06.575Z,99835.88
2022-07-28T03:04:11.156Z,99837.27
2022-07-28T03:05:18.534Z,99832.66
2022-07-28T03:06:26.555Z,99834.58
2022-07-28T03:07:32.333Z,99834.78
2022-07-28T03:08:34.481Z,99836.97
2022-07-28T03:09:42.160Z,99842.91
2022-07-28T03:10:44.933Z,99840.87
2022-07-28T03:11:52.020Z,99851.50
2022-07-28T03:12:55.091Z,99846.75
2022-07-28T03:13:57.062Z,99839.60
2022-07-28T03:14:59.083Z,99850.86
2022-07-28T03:16:01.356Z,99851.36
2022-07-28T03:17:04.163Z,99851.86
2022-07-28T03:18:07.411Z,99850.71
2022-07-28T03:19:09.660Z,99848.99
2022-07-28T03:20:12.568Z,99854.84
2022-07-28T03:21:14.766Z,99857.91
2022-07-28T03:22:17.679Z,99858.66
2022-07-28T03:23:22.433Z,99857.91
2022-07-28T03:24:28.336Z,99861.16
2022-07-28T03:25:40.468Z,99860.34
2022-07-28T03:26:46.401Z,99864.16
2022-07-28T03:27:52.298Z,99861.28
2022-07-28T03:28:57.036Z,99864.36
2022-07-28T03:30:08.054Z,99861.84
2022-07-28T03:31:12.800Z,99856.91
2022-07-28T03:32:18.441Z,99863.77
2022-07-28T03:33:20.559Z,99863.32
2022-07-28T03:34:23.285Z,99860.61
2022-07-28T03:35:26.898Z,99859.48
2022-07-28T03:36:32.848Z,99857.48
2022-07-28T03:37:53.903Z,99860.69
2022-07-28T03:39:03.382Z,99861.43
2022-07-28T03:40:10.435Z,99866.92
2022-07-28T03:41:16.056Z,99860.48
2022-07-28T03:42:19.103Z,99862.29
2022-07-28T03:43:23.518Z,99855.97
2022-07-28T03:44:27.955Z,99858.50
2022-07-28T03:45:30.778Z,99855.38
2022-07-28T03:46:33.790Z,99852.54
2022-07-28T03:47:36.051Z,99855.99
2022-07-28T03:48:38.525Z,99852.81
2022-07-28T03:49:40.837Z,99852.39
2022-07-28T03:50:43.266Z,99852.60
2022-07-28T03:51:45.439Z,99852.39
2022-07-28T03:52:47.680Z,99859.30
2022-07-28T03:53:50.143Z,99847.92
2022-07-28T03:54:52.911Z,99855.73
2022-07-28T03:55:56.191Z,99860.16
2022-07-28T03:56:58.861Z,99856.17
2022-07-28T03:58:01.087Z,99857.12
2022-07-28T03:59:03.600Z,99868.38
2022-07-28T04:00:09.864Z,99859.25
2022-07-28T04:01:15.149Z,99854.48
2022-07-28T04:02:17.582Z,99866.48
2022-07-28T04:03:22.635Z,99855.97
2022-07-28T04:04:24.668Z,99860.98
2022-07-28T04:05:28.123Z,99865.30
2022-07-28T04:06:30.863Z,99863.32
2022-07-28T04:07:33.036Z,99868.17
2022-07-28T04:08:35.290Z,99870.50
2022-07-28T04:09:37.491Z,99864.80
2022-07-28T04:10:40.326Z,99866.48
2022-07-28T04:11:42.479Z,99873.31
2022-07-28T04:12:52.318Z,99872.13
2022-07-28T04:13:57.703Z,99871.74
2022-07-28T04:14:59.988Z,99873.31
2022-07-28T04:16:02.652Z,99866.25
2022-07-28T04:17:04.768Z,99877.71
2022-07-28T04:18:07.064Z,99884.89
2022-07-28T04:19:10.878Z,99882.64
2022-07-28T04:20:14.895Z,99876.77
2022-07-28T04:21:17.053Z,99884.56
2022-07-28T04:22:19.341Z,99878.33
2022-07-28T04:23:22.186Z,99884.95
2022-07-28T04:24:25.496Z,99881.50
2022-07-28T04:25:27.587Z,99873.25
2022-07-28T04:26:30.708Z,99880.93
2022-07-28T04:27:35.326Z,99876.29
2022-07-28T04:28:37.781Z,99887.88
2022-07-28T04:29:40.035Z,99882.62
2022-07-28T04:30:43.831Z,99889.32
2022-07-28T04:31:46.708Z,99889.94
2022-07-28T04:32:50.302Z,99882.82
2022-07-28T04:33:52.866Z,99897.45
2022-07-28T04:34:55.566Z,99891.24
2022-07-28T04:35:57.759Z,99895.82
2022-07-28T04:36:59.923Z,99900.02
2022-07-28T04:38:02.109Z,99904.21
2022-07-28T04:39:04.370Z,99905.28
2022-07-28T04:40:09.460Z,99903.00
2022-07-28T04:41:12.152Z,99899.93
2022-07-28T04:42:15.447Z,99898.73
2022-07-28T04:43:17.815Z,99912.22
2022-07-28T04:44:20.188Z,99902.32
2022-07-28T04:45:23.028Z,99901.98
2022-07-28T04:46:26.516Z,99889.12
2022-07-28T04:47:28.886Z,99906.30
2022-07-28T04:48:31.054Z,99895.78
2022-07-28T04:49:33.087Z,99896.61
2022-07-28T04:50:39.309Z,99903.34
2022-07-28T04:51:41.523Z,99906.92
2022-07-28T04:52:43.886Z,99905.64
2022-07-28T04:53:46.820Z,99902.44
2022-07-28T04:54:49.760Z,99900.42
2022-07-28T04:55:53.364Z,99905.06
2022-07-28T04:56:56.100Z,99910.83
2022-07-28T04:57:58.235Z,99912.54
2022-07-28T04:59:01.138Z,99916.33
2022-07-28T05:00:07.933Z,99921.35
2022-07-28T05:01:10.608Z,99910.41
2022-07-28T05:02:13.217Z,99913.52
2022-07-28T05:03:18.034Z,99913.52
2022-07-28T05:04:21.524Z,99913.98
2022-07-28T05:05:24.605Z,99921.88
2022-07-28T05:06:28.352Z,99914.84
2022-07-28T05:07:30.491Z,99917.14
2022-07-28T05:08:32.536Z,99917.37
2022-07-28T05:09:34.786Z,99925.80
2022-07-28T05:10:37.558Z,99921.95
2022-07-28T05:11:39.722Z,99918.36
2022-07-28T05:12:42.379Z,99923.63
2022-07-28T05:13:44.631Z,99920.75
2022-07-28T05:14:46.794Z,99916.22
2022-07-28T05:15:48.959Z,99925.43
2022-07-28T05:16:51.876Z,99921.30
2022-07-28T05:17:55.158Z,99922.00
2022-07-28T05:18:57.986Z,99921.05
2022-07-28T05:20:02.579Z,99923.47
2022-07-28T05:21:06.292Z,99921.31
2022-07-28T05:22:08.375Z,99930.30
2022-07-28T05:23:11.026Z,99931.85
2022-07-28T05:24:13.525Z,99926.36
2022-07-28T05:25:18.882Z,99923.61
2022-07-28T05:26:22.097Z,99925.16
2022-07-28T05:27:25.274Z,99929.48
2022-07-28T05:28:27.880Z,99934.02
2022-07-28T05:29:37.549Z,99930.09
2022-07-28T05:30:34.886Z,99930.09
2022-07-28T05:31:38.267Z,99926.50
2022-07-28T05:32:40.878Z,99926.13
2022-07-28T05:33:43.461Z,99928.55
2022-07-28T05:34:45.542Z,99931.17
2022-07-28T05:35:54.424Z,99928.77
2022-07-28T05:36:56.774Z,99924.48
2022-07-28T05:37:59.043Z,99930.45
2022-07-28T05:39:01.213Z,99933.67
2022-07-28T05:40:06.422Z,99933.81
2022-07-28T05:41:09.464Z,99937.78
2022-07-28T05:42:11.764Z,99931.78
2022-07-28T05:43:13.921Z,99932.27
2022-07-28T05:44:16.644Z,99934.80
2022-07-28T05:45:19.188Z,99943.40
2022-07-28T05:46:23.007Z,99940.98
2022-07-28T05:47:25.744Z,99934.50
2022-07-28T05:48:28.287Z,99945.64
2022-07-28T05:49:30.558Z,99946.72
2022-07-28T05:50:34.042Z,99940.98
2022-07-28T05:51:41.382Z,99943.15
2022-07-28T05:52:40.443Z,99938.99
2022-07-28T05:53:42.652Z,99935.76
2022-07-28T05:54:44.835Z,99936.36
2022-07-28T05:55:59.637Z,99936.23
2022-07-28T05:56:51.997Z,99948.46
2022-07-28T05:57:54.385Z,99945.38
2022-07-28T05:58:57.729Z,99945.38
2022-07-28T05:59:59.951Z,99944.67
2022-07-28T06:01:02.874Z,99936.03
2022-07-28T06:02:05.415Z,99944.67
2022-07-28T06:03:07.713Z,99948.87
2022-07-28T06:04:26.069Z,99951.38
2022-07-28T06:05:16.643Z,99955.47
2022-07-28T06:06:21.661Z,99960.36
2022-07-28T06:07:23.959Z,99959.05
2022-07-28T06:08:28.109Z,99959.05
2022-07-28T06:09:30.483Z,99958.09
2022-07-28T06:10:33.039Z,99967.20
2022-07-28T06:11:35.143Z,99958.56
2022-07-28T06:12:41.967Z,99955.70
2022-07-28T06:13:44.176Z,99963.48
2022-07-28T06:14:46.271Z,99961.70
2022-07-28T06:15:49.261Z,99969.71
2022-07-28T06:16:51.875Z,99963.73
2022-07-28T06:17:54.682Z,99968.87
2022-07-28T06:18:56.964Z,99972.23
2022-07-28T06:19:59.127Z,99970.81
2022-07-28T06:21:01.501Z,99968.64
2022-07-28T06:22:03.672Z,99966.00
2022-07-28T06:23:05.794Z,99974.39
2022-07-28T06:24:08.549Z,99980.39
2022-07-28T06:26:33.994Z,99980.03
2022-07-28T06:27:36.133Z,99981.61
2022-07-28T06:28:38.287Z,99984.72
2022-07-28T06:29:40.547Z,99981.13
2022-07-28T06:30:43.035Z,99983.38
2022-07-28T06:31:45.087Z,99984.70
2022-07-28T06:32:48.450Z,99980.97
2022-07-28T06:33:50.844Z,99984.83
2022-07-28T06:34:53.168Z,99984.70
2022-07-28T06:35:56.372Z,99983.73
2022-07-28T06:36:59.816Z,99986.98
2022-07-28T06:38:02.102Z,99990.94
2022-07-28T06:39:04.762Z,99989.12
2022-07-28T06:40:08.432Z,99988.89
2022-07-28T06:41:10.548Z,99978.94
2022-07-28T06:42:12.910Z,99992.13
2022-07-28T06:43:16.098Z,99996.19
2022-07-28T06:44:18.825Z,99992.10
2022-07-28T06:45:23.389Z,99995.11
2022-07-28T06:46:26.395Z,99993.78
2022-07-28T06:47:30.427Z,99990.52
2022-07-28T06:48:33.440Z,99993.06
2022-07-28T06:49:35.628Z,99983.36
2022-07-28T06:50:37.956Z,99979.03
2022-07-28T06:51:40.310Z,99988.50
2022-07-28T06:52:42.882Z,99985.37
2022-07-28T06:53:46.257Z,99991.14
2022-07-28T06:54:50.032Z,99985.13
2022-07-28T06:55:53.147Z,99988.95
2022-07-28T06:56:56.088Z,99986.63
2022-07-28T06:57:59.771Z,99984.08
2022-07-28T06:59:02.437Z,99986.72
2022-07-28T07:00:06.982Z,99982.88
2022-07-28T07:01:09.701Z,99991.76
2022-07-28T07:02:14.325Z,99987.30
2022-07-28T07:03:19.268Z,99995.04
2022-07-28T07:04:21.477Z,99992.27
2022-07-28T07:05:26.896Z,99990.82
2022-07-28T07:06:29.725Z,99997.20
2022-07-28T07:07:32.000Z,99987.13
2022-07-28T07:08:34.360Z,99991.55
2022-07-28T07:09:37.157Z,99995.13
2022-07-28T07:10:39.759Z,99992.86
2022-07-28T07:11:42.707Z,99992.86
2022-07-28T07:12:46.070Z,99995.95
2022-07-28T07:13:49.523Z,99999.63
2022-07-28T07:14:51.906Z,99996.48
2022-07-28T07:15:54.305Z,99997.12
2022-07-28T07:16:57.063Z,99998.22
2022-07-28T07:17:59.818Z,99995.44
2022-07-28T07:19:06.405Z,99985.91
2022-07-28T07:20:08.856Z,99984.44
2022-07-28T07:21:11.204Z,99984.44
2022-07-28T07:22:14.906Z,99995.08
2022-07-28T07:23:17.699Z,99995.21
2022-07-28T07:24:21.148Z,99994.11
2022-07-28T07:25:25.208Z,99995.44
2022-07-28T07:26:29.366Z,99985.45
2022-07-28T07:27:31.572Z,99981.72
2022-07-28T07:28:34.915Z,99989.98
2022-07-28T07:29:37.260Z,99985.87
2022-07-28T07:30:39.547Z,99993.14
2022-07-28T07:31:41.747Z,99992.66
2022-07-28T07:32:48.588Z,99987.14
2022-07-28T07:33:51.013Z,99987.21
2022-07-28T07:34:53.294Z,99987.55
2022-07-28T07:35:55.485Z,99985.73
2022-07-28T07:36:57.919Z,99990.58
2022-07-28T07:38:00.566Z,99988.96
2022-07-28T07:39:02.722Z,99991.81
2022-07-28T07:40:07.233Z,99994.45
2022-07-28T07:41:09.369Z,99992.05
2022-07-28T07:42:13.352Z,99992.05
2022-07-28T07:43:15.651Z,99992.63
2022-07-28T07:44:18.101Z,99993.00
2022-07-28T07:45:20.564Z,99993.00
2022-07-28T07:46:30.362Z,99989.12
2022-07-28T07:47:50.818Z,99991.77
2022-07-28T07:48:53.737Z,99995.32
2022-07-28T07:49:56.047Z,99993.11
2022-07-28T07:50:59.635Z,100009.28
2022-07-28T07:52:03.038Z,99999.80
2022-07-28T07:53:05.996Z,100003.16
2022-07-28T07:54:08.207Z,100006.53
2022-07-28T07:55:12.357Z,100005.28
2022-07-28T07:56:15.081Z,100009.33
2022-07-28T07:57:18.309Z,100006.25
2022-07-28T07:58:21.595Z,100008.17
2022-07-28T07:59:26.103Z,100002.64
2022-07-28T08:00:31.217Z,100002.64
2022-07-28T08:01:44.517Z,99998.50
2022-07-28T08:02:51.208Z,100003.55
2022-07-28T08:03:53.747Z,100004.41
2022-07-28T08:04:56.429Z,100013.55
2022-07-28T08:05:59.163Z,100013.22
2022-07-28T08:07:03.356Z,99999.28
2022-07-28T08:08:07.632Z,100009.91
2022-07-28T08:09:10.331Z,100011.91
2022-07-28T08:10:13.187Z,100003.44
2022-07-28T08:11:15.336Z,100018.08
2022-07-28T08:12:17.487Z,100017.83
2022-07-28T08:13:22.526Z,100011.91
2022-07-28T08:14:24.672Z,100021.40
2022-07-28T08:15:26.923Z,100015.14
2022-07-28T08:16:30.874Z,100012.06
2022-07-28T08:17:33.355Z,100022.39
2022-07-28T08:18:35.444Z,100010.33
2022-07-28T08:19:37.672Z,100022.88
2022-07-28T08:20:41.707Z,100018.95
2022-07-28T08:21:44.070Z,100006.97
2022-07-28T08:24:03.529Z,100006.42
2022-07-28T08:25:06.788Z,100012.53
2022-07-28T08:26:09.947Z,100014.99
2022-07-28T08:27:12.267Z,100020.28
2022-07-28T08:28:15.036Z,100013.17
2022-07-28T08:29:17.116Z,100021.04
2022-07-28T08:30:23.143Z,100021.04
2022-07-28T08:31:25.871Z,100020.36
2022-07-28T08:32:28.126Z,100013.31
2022-07-28T08:33:30.224Z,100018.61
2022-07-28T08:34:34.222Z,100011.84
2022-07-28T08:35:36.538Z,100015.81
2022-07-28T08:36:38.990Z,100026.04
2022-07-28T08:37:41.101Z,100017.13
2022-07-28T08:38:43.258Z,100018.21
2022-07-28T08:39:45.577Z,100010.84
2022-07-28T08:40:49.721Z,100016.59
2022-07-28T08:42:08.192Z,100016.87
2022-07-28T08:43:34.082Z,100008.78
2022-07-28T08:44:53.986Z,100017.17
2022-07-28T08:45:58.811Z,100019.12
2022-07-28T08:47:02.486Z,100016.87
2022-07-28T08:48:09.374Z,100025.78
2022-07-28T08:49:15.419Z,100025.38
2022-07-28T08:50:20.899Z,100025.80
2022-07-28T08:51:26.521Z,100024.95
2022-07-28T08:52:30.506Z,100020.77
2022-07-28T08:53:35.079Z,100021.34
2022-07-28T08:54:43.018Z,100028.86
2022-07-28T08:55:47.059Z,100021.88
2022-07-28T08:56:50.094Z,100015.45
2022-07-28T08:57:54.556Z,100026.89
2022-07-28T08:58:58.956Z,100012.43
2022-07-28T09:00:01.653Z,100021.73
2022-07-28T09:01:05.907Z,100010.98
2022-07-28T09:02:11.055Z,100010.04
2022-07-28T09:03:14.322Z,100027.88
2022-07-28T09:04:18.235Z,100015.21
2022-07-28T09:05:22.401Z,100009.66
2022-07-28T09:06:26.871Z,100020.52
2022-07-28T09:07:31.042Z,100018.31
2022-07-28T09:08:33.946Z,100020.00
2022-07-28T09:09:37.428Z,100017.21
2022-07-28T09:10:39.967Z,100021.39
2022-07-28T09:11:43.325Z,100024.19
2022-07-28T09:12:46.064Z,100018.89
2022-07-28T09:13:53.563Z,100021.09
2022-07-28T09:14:52.417Z,100015.94
2022-07-28T09:15:54.716Z,100017.77
2022-07-28T09:16:59.700Z,100033.68
2022-07-28T09:18:01.998Z,100038.98
2022-07-28T09:19:04.023Z,100030.86
2022-07-28T09:20:11.323Z,100021.09
2022-07-28T09:21:13.754Z,100036.98
2022-07-28T09:22:16.732Z,100024.73
2022-07-28T09:23:42.961Z,100016.92
2022-07-28T09:24:40.089Z,100029.09
2022-07-28T09:25:42.249Z,100034.25
2022-07-28T09:28:18.236Z,100023.11
2022-07-28T09:29:25.375Z,100026.30
2022-07-28T09:30:30.503Z,100026.71
2022-07-28T09:31:32.812Z,100019.20
2022-07-28T09:32:35.677Z,100021.14
2022-07-28T09:33:43.248Z,100021.73
2022-07-28T09:34:47.843Z,100028.27
2022-07-28T09:35:52.562Z,100030.36
2022-07-28T09:36:55.595Z,100025.06
2022-07-28T09:38:01.174Z,100023.53
2022-07-28T09:39:03.658Z,100030.36
2022-07-28T09:40:13.232Z,100047.53
2022-07-28T09:41:15.304Z,100031.07
2022-07-28T09:42:17.798Z,100037.48
2022-07-28T09:43:32.158Z,100029.53
2022-07-28T09:44:34.386Z,100031.06
2022-07-28T09:45:36.465Z,100035.96
2022-07-28T09:46:39.344Z,100041.52
2022-07-28T09:47:41.899Z,100038.31
2022-07-28T09:48:53.424Z,100033.03
2022-07-28T09:49:55.722Z,100031.20
2022-07-28T09:51:12.733Z,100031.18
2022-07-28T09:52:31.062Z,100034.94
2022-07-28T09:53:33.236Z,100037.73
2022-07-28T09:54:40.543Z,100029.63
2022-07-28T09:55:44.018Z,100032.28
2022-07-28T09:56:47.572Z,100035.06
2022-07-28T09:57:49.732Z,100045.10
2022-07-28T09:58:57.306Z,100036.96
2022-07-28T10:00:00.194Z,100045.78
2022-07-28T10:01:09.055Z,100039.06
2022-07-28T10:02:11.802Z,100043.95
2022-07-28T10:03:26.020Z,100033.20
2022-07-28T10:04:30.603Z,100039.45
2022-07-28T10:05:39.550Z,100029.03
2022-07-28T10:06:42.633Z,100043.27
2022-07-28T10:07:49.069Z,100030.66
2022-07-28T10:08:52.372Z,100030.32
2022-07-28T10:10:03.544Z,100029.47
2022-07-28T10:11:06.527Z,100032.22
2022-07-28T10:12:16.719Z,100038.45
2022-07-28T10:13:19.026Z,100030.06
2022-07-28T10:14:24.770Z,100034.29
2022-07-28T10:15:31.108Z,100030.01
2022-07-28T10:16:35.995Z,100031.69
2022-07-28T10:17:38.916Z,100041.76
2022-07-28T10:18:43.132Z,100046.75
2022-07-28T10:19:46.348Z,100046.20
2022-07-28T10:20:49.070Z,100043.13
2022-07-28T10:21:54.203Z,100040.34
2022-07-28T10:23:00.137Z,100039.49
2022-07-28T10:24:05.710Z,100044.45
2022-07-28T10:25:10.333Z,100040.98
2022-07-28T10:26:15.197Z,100034.19
2022-07-28T10:27:18.813Z,100039.06
2022-07-28T10:28:22.191Z,100033.48
2022-07-28T10:29:25.255Z,100034.14
2022-07-28T10:30:32.421Z,100050.31
2022-07-28T10:31:47.102Z,100054.91
2022-07-28T10:32:50.720Z,100038.02
2022-07-28T10:33:54.891Z,100039.02
2022-07-28T10:34:59.971Z,100041.91
2022-07-28T10:36:03.703Z,100037.97
2022-07-28T10:37:09.472Z,100038.23
2022-07-28T10:38:14.177Z,100037.05
2022-07-28T10:39:20.352Z,100030.48
2022-07-28T10:40:27.506Z,100026.42
2022-07-28T10:41:33.449Z,100020.74
2022-07-28T10:42:36.631Z,100025.62
2022-07-28T10:43:42.721Z,100025.16
2022-07-28T10:44:46.467Z,100025.59
2022-07-28T10:46:06.697Z,100037.98
2022-07-28T10:46:54.018Z,100046.42
2022-07-28T10:47:57.344Z,100033.36
2022-07-28T10:49:03.659Z,100032.88
2022-07-28T10:50:05.924Z,100029.41
2022-07-28T10:51:08.737Z,100025.22
2022-07-28T10:52:30.469Z,100031.08
2022-07-28T10:53:34.557Z,100034.03
2022-07-28T10:55:00.158Z,100028.33
2022-07-28T10:56:09.200Z,100036.77
2022-07-28T10:57:13.516Z,100037.03
2022-07-28T10:58:40.734Z,100031.98
2022-07-28T10:59:48.723Z,100034.87
2022-07-28T11:00:56.468Z,100031.61
2022-07-28T11:01:59.768Z,100028.17
2022-07-28T11:03:13.421Z,100030.89
2022-07-28T11:04:07.544Z,100035.29
2022-07-28T11:05:35.513Z,100035.92
2022-07-28T11:06:38.827Z,100039.96
2022-07-28T11:07:40.977Z,100029.97
2022-07-28T11:08:43.350Z,100041.73
2022-07-28T11:09:49.353Z,100030.56
2022-07-28T11:11:00.730Z,100034.73
2022-07-28T11:11:59.858Z,100051.05
2022-07-28T11:13:04.233Z,100038.09
2022-07-28T11:14:31.197Z,100040.22
2022-07-28T11:15:37.077Z,100047.41
2022-07-28T11:16:41.000Z,100041.38
2022-07-28T11:17:48.590Z,100051.13
2022-07-28T11:19:40.093Z,100033.55
2022-07-28T11:20:26.043Z,100027.55
2022-07-28T11:21:20.645Z,100018.69
2022-07-28T11:22:25.020Z,100032.08
2022-07-28T11:23:40.411Z,100026.52
2022-07-28T11:25:00.778Z,100026.40
2022-07-28T11:26:24.239Z,100040.16
2022-07-28T11:27:45.410Z,100030.15
2022-07-28T11:29:03.809Z,100038.48
2022-07-28T11:30:09.823Z,100030.83
2022-07-28T11:31:13.218Z,100027.14
2022-07-28T11:32:15.559Z,100024.59
2022-07-28T11:33:19.293Z,100026.50
2022-07-28T11:34:23.750Z,100023.05
2022-07-28T11:35:29.159Z,100028.48
2022-07-28T11:37:04.231Z,100023.05
2022-07-28T11:38:11.783Z,100024.47
2022-07-28T11:39:28.179Z,100025.42
2022-07-28T11:40:38.873Z,100023.05
2022-07-28T11:41:42.159Z,100016.63
2022-07-28T11:42:46.529Z,100025.77
2022-07-28T11:43:49.925Z,100022.67
2022-07-28T11:44:53.707Z,100035.98
2022-07-28T11:46:09.508Z,100027.62
2022-07-28T11:47:18.126Z,100024.77
2022-07-28T11:48:23.297Z,100016.96
2022-07-28T11:49:26.363Z,100015.89
2022-07-28T11:50:29.939Z,100021.05
2022-07-28T11:51:38.783Z,100021.05
2022-07-28T11:52:38.839Z,100010.97
2022-07-28T11:53:53.295Z,100027.84
2022-07-28T11:54:57.900Z,100010.16
2022-07-28T11:56:03.325Z,100009.83
2022-07-28T11:57:07.026Z,100011.31
2022-07-28T11:58:14.109Z,100011.33
2022-07-28T11:59:18.004Z,100004.67
2022-07-28T12:00:21.978Z,100005.66
2022-07-28T12:01:25.282Z,100010.45
2022-07-28T12:02:29.354Z,99997.50
2022-07-28T12:03:38.551Z,99999.50
2022-07-28T12:04:43.141Z,100003.84
2022-07-28T12:07:05.296Z,100000.83
2022-07-28T12:08:08.033Z,99993.16
2022-07-28T12:09:10.819Z,99992.16
2022-07-28T12:10:54.092Z,100003.83
2022-07-28T12:11:42.682Z,100027.14
2022-07-28T12:12:50.869Z,100012.43
2022-07-28T12:14:09.602Z,100004.75
2022-07-28T12:15:16.371Z,100012.89
2022-07-28T12:16:24.217Z,100013.40
2022-07-28T12:17:33.934Z,100004.05
2022-07-28T12:18:38.489Z,100008.41
2022-07-28T12:19:43.515Z,100012.52
2022-07-28T12:20:48.758Z,100013.13
2022-07-28T12:21:55.717Z,100011.64
2022-07-28T12:23:07.350Z,100017.10
2022-07-28T12:24:15.257Z,100006.16
2022-07-28T12:25:19.936Z,100000.48
2022-07-28T12:26:31.746Z,100005.50
2022-07-28T12:27:33.997Z,100003.13
2022-07-28T12:28:38.081Z,100010.27
2022-07-28T12:29:40.350Z,100010.23
2022-07-28T12:30:44.430Z,100007.99
2022-07-28T12:31:57.080Z,100003.89
2022-07-28T12:32:59.496Z,100003.52
2022-07-28T12:34:03.273Z,100004.33
2022-07-28T12:35:06.826Z,100014.70
2022-07-28T12:36:09.863Z,100004.14
2022-07-28T12:37:13.754Z,100012.50
2022-07-28T12:38:17.498Z,100017.33
2022-07-28T12:39:19.928Z,100007.50
2022-07-28T12:40:27.457Z,100016.49
2022-07-28T12:41:32.211Z,100012.51
2022-07-28T12:42:34.336Z,100011.81
2022-07-28T12:43:37.128Z,100012.84
2022-07-28T12:45:53.406Z,100001.77